sensor_id;sensor_type;location;lat;lon;timestamp;temperature;humidity
51982;DHT22;37998;53.416;6.730;2023-11-21T00:00:19;9.80;99.90
51982;DHT22;37998;53.416;6.730;2023-11-21T00:02:45;9.80;99.90
51982;DHT22;37998;53.416;6.730;2023-11-21T00:05:12;9.80;99.90
51982;DHT22;37998;53.416;6.730;2023-11-21T00:07:40;9.80;99.90
51982;DHT22;37998;53.416;6.730;2023-11-21T00:10:07;9.90;99.90
51982;DHT22;37998;53.416;6.730;2023-11-21T00:12:37;9.80;99.90
51982;DHT22;37998;53.416;6.730;2023-11-21T00:15:03;9.90;99.90
51982;DHT22;37998;53.416;6.730;2023-11-21T00:17:31;9.80;99.90
51982;DHT22;37998;53.416;6.730;2023-11-21T00:19:57;9.90;99.90
51982;DHT22;37998;53.416;6.730;2023-11-21T00:22:23;9.90;99.90
51982;DHT22;37998;53.416;6.730;2023-11-21T00:24:48;9.90;99.90
51982;DHT22;37998;53.416;6.730;2023-11-21T00:27:14;9.90;99.90
51982;DHT22;37998;53.416;6.730;2023-11-21T00:29:40;9.90;99.90
51982;DHT22;37998;53.416;6.730;2023-11-21T00:32:07;9.90;99.90
51982;DHT22;37998;53.416;6.730;2023-11-21T00:34:33;9.90;99.90
51982;DHT22;37998;53.416;6.730;2023-11-21T00:37:00;10.00;99.90
51982;DHT22;37998;53.416;6.730;2023-11-21T00:39:26;10.00;99.90
51982;DHT22;37998;53.416;6.730;2023-11-21T00:41:52;9.90;99.90
51982;DHT22;37998;53.416;6.730;2023-11-21T00:44:18;9.90;99.90
51982;DHT22;37998;53.416;6.730;2023-11-21T00:46:44;10.00;99.90
51982;DHT22;37998;53.416;6.730;2023-11-21T00:49:10;10.00;99.90
51982;DHT22;37998;53.416;6.730;2023-11-21T00:51:36;9.90;99.90
51982;DHT22;37998;53.416;6.730;2023-11-21T00:54:02;10.00;99.90
51982;DHT22;37998;53.416;6.730;2023-11-21T00:56:28;10.00;99.90
51982;DHT22;37998;53.416;6.730;2023-11-21T00:58:54;10.10;99.90
51982;DHT22;37998;53.416;6.730;2023-11-21T01:01:21;10.10;99.90
51982;DHT22;37998;53.416;6.730;2023-11-21T01:03:50;10.90;99.90
51982;DHT22;37998;53.416;6.730;2023-11-21T01:06:16;10.10;99.90
51982;DHT22;37998;53.416;6.730;2023-11-21T01:08:44;10.20;99.90
51982;DHT22;37998;53.416;6.730;2023-11-21T01:11:10;10.10;99.90
51982;DHT22;37998;53.416;6.730;2023-11-21T01:13:39;10.10;99.90
51982;DHT22;37998;53.416;6.730;2023-11-21T01:16:05;10.10;99.90
51982;DHT22;37998;53.416;6.730;2023-11-21T01:18:37;10.10;99.90
51982;DHT22;37998;53.416;6.730;2023-11-21T01:21:03;10.20;99.90
51982;DHT22;37998;53.416;6.730;2023-11-21T01:23:30;10.10;99.90
51982;DHT22;37998;53.416;6.730;2023-11-21T01:25:57;10.10;99.90
51982;DHT22;37998;53.416;6.730;2023-11-21T01:28:23;10.10;99.90
51982;DHT22;37998;53.416;6.730;2023-11-21T01:30:49;10.10;99.90
51982;DHT22;37998;53.416;6.730;2023-11-21T01:33:15;10.10;99.90
51982;DHT22;37998;53.416;6.730;2023-11-21T01:35:42;10.10;99.90
51982;DHT22;37998;53.416;6.730;2023-11-21T01:38:08;10.20;99.90
51982;DHT22;37998;53.416;6.730;2023-11-21T01:40:34;10.00;99.90
51982;DHT22;37998;53.416;6.730;2023-11-21T01:43:00;10.10;99.90
51982;DHT22;37998;53.416;6.730;2023-11-21T01:45:29;10.10;99.90
51982;DHT22;37998;53.416;6.730;2023-11-21T01:47:57;10.00;99.90
51982;DHT22;37998;53.416;6.730;2023-11-21T01:50:26;10.00;99.90
51982;DHT22;37998;53.416;6.730;2023-11-21T01:52:53;10.10;99.90
51982;DHT22;37998;53.416;6.730;2023-11-21T01:55:20;10.10;99.90
51982;DHT22;37998;53.416;6.730;2023-11-21T01:57:46;10.00;99.90
51982;DHT22;37998;53.416;6.730;2023-11-21T02:00:13;10.00;99.90
51982;DHT22;37998;53.416;6.730;2023-11-21T02:02:46;9.90;99.90
51982;DHT22;37998;53.416;6.730;2023-11-21T02:05:14;10.00;99.90
51982;DHT22;37998;53.416;6.730;2023-11-21T02:07:41;9.90;99.90
51982;DHT22;37998;53.416;6.730;2023-11-21T02:10:09;9.80;99.90
51982;DHT22;37998;53.416;6.730;2023-11-21T02:12:36;9.80;99.90
51982;DHT22;37998;53.416;6.730;2023-11-21T02:15:05;9.90;99.90
51982;DHT22;37998;53.416;6.730;2023-11-21T02:17:35;9.90;99.90
51982;DHT22;37998;53.416;6.730;2023-11-21T02:20:02;9.90;99.90
51982;DHT22;37998;53.416;6.730;2023-11-21T02:22:31;9.80;99.90
51982;DHT22;37998;53.416;6.730;2023-11-21T02:24:58;10.00;99.90
51982;DHT22;37998;53.416;6.730;2023-11-21T02:27:24;9.80;99.90
51982;DHT22;37998;53.416;6.730;2023-11-21T02:29:50;10.00;99.90
51982;DHT22;37998;53.416;6.730;2023-11-21T02:32:16;9.90;99.90
51982;DHT22;37998;53.416;6.730;2023-11-21T02:34:48;9.90;99.90
51982;DHT22;37998;53.416;6.730;2023-11-21T02:37:15;10.00;99.90
51982;DHT22;37998;53.416;6.730;2023-11-21T02:39:41;10.00;99.90
51982;DHT22;37998;53.416;6.730;2023-11-21T02:42:07;10.10;99.90
51982;DHT22;37998;53.416;6.730;2023-11-21T02:44:33;9.90;99.90
51982;DHT22;37998;53.416;6.730;2023-11-21T02:47:00;9.90;99.90
51982;DHT22;37998;53.416;6.730;2023-11-21T02:49:27;10.00;99.90
51982;DHT22;37998;53.416;6.730;2023-11-21T02:51:54;9.90;99.90
51982;DHT22;37998;53.416;6.730;2023-11-21T02:54:21;10.00;99.90
51982;DHT22;37998;53.416;6.730;2023-11-21T02:56:50;9.90;99.90
51982;DHT22;37998;53.416;6.730;2023-11-21T02:59:16;9.90;99.90
51982;DHT22;37998;53.416;6.730;2023-11-21T03:01:42;9.90;99.90
51982;DHT22;37998;53.416;6.730;2023-11-21T03:04:08;9.90;99.90
51982;DHT22;37998;53.416;6.730;2023-11-21T03:06:34;10.00;99.90
51982;DHT22;37998;53.416;6.730;2023-11-21T03:09:00;9.90;99.90
51982;DHT22;37998;53.416;6.730;2023-11-21T03:11:26;10.00;99.90
51982;DHT22;37998;53.416;6.730;2023-11-21T03:13:51;10.00;99.90
51982;DHT22;37998;53.416;6.730;2023-11-21T03:16:19;10.00;99.90
51982;DHT22;37998;53.416;6.730;2023-11-21T03:18:45;10.00;99.90
51982;DHT22;37998;53.416;6.730;2023-11-21T03:21:12;9.90;99.90
51982;DHT22;37998;53.416;6.730;2023-11-21T03:23:38;10.00;99.90
51982;DHT22;37998;53.416;6.730;2023-11-21T03:26:05;10.00;99.90
51982;DHT22;37998;53.416;6.730;2023-11-21T03:28:35;9.90;99.90
51982;DHT22;37998;53.416;6.730;2023-11-21T03:31:02;9.90;99.90
51982;DHT22;37998;53.416;6.730;2023-11-21T03:33:28;9.90;99.90
51982;DHT22;37998;53.416;6.730;2023-11-21T03:35:53;10.00;99.90
51982;DHT22;37998;53.416;6.730;2023-11-21T03:38:20;9.90;99.90
51982;DHT22;37998;53.416;6.730;2023-11-21T03:40:46;9.90;99.90
51982;DHT22;37998;53.416;6.730;2023-11-21T03:43:13;9.90;99.90
51982;DHT22;37998;53.416;6.730;2023-11-21T03:45:39;9.90;99.90
51982;DHT22;37998;53.416;6.730;2023-11-21T03:48:06;9.90;99.90
51982;DHT22;37998;53.416;6.730;2023-11-21T03:50:32;9.90;99.90
51982;DHT22;37998;53.416;6.730;2023-11-21T03:52:59;10.00;99.90
51982;DHT22;37998;53.416;6.730;2023-11-21T03:55:24;9.90;99.90
51982;DHT22;37998;53.416;6.730;2023-11-21T03:57:51;9.90;99.90
51982;DHT22;37998;53.416;6.730;2023-11-21T04:00:19;9.90;99.90
51982;DHT22;37998;53.416;6.730;2023-11-21T04:02:48;9.90;99.90
51982;DHT22;37998;53.416;6.730;2023-11-21T04:05:14;9.90;99.90
51982;DHT22;37998;53.416;6.730;2023-11-21T04:07:39;9.90;99.90
51982;DHT22;37998;53.416;6.730;2023-11-21T04:10:07;10.00;99.90
51982;DHT22;37998;53.416;6.730;2023-11-21T04:12:37;9.80;99.90
51982;DHT22;37998;53.416;6.730;2023-11-21T04:15:04;9.80;99.90
51982;DHT22;37998;53.416;6.730;2023-11-21T04:17:30;9.90;99.90
51982;DHT22;37998;53.416;6.730;2023-11-21T04:19:56;9.80;99.90
51982;DHT22;37998;53.416;6.730;2023-11-21T04:22:22;9.80;99.90
51982;DHT22;37998;53.416;6.730;2023-11-21T04:24:48;9.80;99.90
51982;DHT22;37998;53.416;6.730;2023-11-21T04:27:14;9.80;99.90
51982;DHT22;37998;53.416;6.730;2023-11-21T04:29:40;9.80;99.90
51982;DHT22;37998;53.416;6.730;2023-11-21T04:32:07;9.80;99.90
51982;DHT22;37998;53.416;6.730;2023-11-21T04:34:33;9.90;99.90
51982;DHT22;37998;53.416;6.730;2023-11-21T04:37:00;9.80;99.90
51982;DHT22;37998;53.416;6.730;2023-11-21T04:39:26;9.80;99.90
51982;DHT22;37998;53.416;6.730;2023-11-21T04:41:52;9.70;99.90
51982;DHT22;37998;53.416;6.730;2023-11-21T04:44:18;9.70;99.90
51982;DHT22;37998;53.416;6.730;2023-11-21T04:46:44;9.70;99.90
51982;DHT22;37998;53.416;6.730;2023-11-21T04:49:10;9.70;99.90
51982;DHT22;37998;53.416;6.730;2023-11-21T04:51:36;9.70;99.90
51982;DHT22;37998;53.416;6.730;2023-11-21T04:54:02;9.70;99.90
51982;DHT22;37998;53.416;6.730;2023-11-21T04:56:28;9.70;99.90
51982;DHT22;37998;53.416;6.730;2023-11-21T04:58:54;9.60;99.90
51982;DHT22;37998;53.416;6.730;2023-11-21T05:01:20;9.70;99.90
51982;DHT22;37998;53.416;6.730;2023-11-21T05:03:46;9.70;99.90
51982;DHT22;37998;53.416;6.730;2023-11-21T05:06:13;9.60;99.90
51982;DHT22;37998;53.416;6.730;2023-11-21T05:08:40;9.60;99.90
51982;DHT22;37998;53.416;6.730;2023-11-21T05:11:06;9.60;99.90
51982;DHT22;37998;53.416;6.730;2023-11-21T05:13:36;9.60;99.90
51982;DHT22;37998;53.416;6.730;2023-11-21T05:16:03;9.60;99.90
51982;DHT22;37998;53.416;6.730;2023-11-21T05:18:32;9.60;99.90
51982;DHT22;37998;53.416;6.730;2023-11-21T05:20:58;9.60;99.90
51982;DHT22;37998;53.416;6.730;2023-11-21T05:23:24;9.60;99.90
51982;DHT22;37998;53.416;6.730;2023-11-21T05:25:50;9.60;99.90
51982;DHT22;37998;53.416;6.730;2023-11-21T05:28:16;9.60;99.90
51982;DHT22;37998;53.416;6.730;2023-11-21T05:30:42;9.50;99.90
51982;DHT22;37998;53.416;6.730;2023-11-21T05:33:08;9.60;99.90
51982;DHT22;37998;53.416;6.730;2023-11-21T05:35:33;9.50;99.90
51982;DHT22;37998;53.416;6.730;2023-11-21T05:37:59;9.50;99.90
51982;DHT22;37998;53.416;6.730;2023-11-21T05:40:25;9.40;99.90
51982;DHT22;37998;53.416;6.730;2023-11-21T05:42:55;9.40;99.90
51982;DHT22;37998;53.416;6.730;2023-11-21T05:45:21;9.40;99.90
51982;DHT22;37998;53.416;6.730;2023-11-21T05:47:47;9.40;99.90
51982;DHT22;37998;53.416;6.730;2023-11-21T05:50:15;9.30;99.90
51982;DHT22;37998;53.416;6.730;2023-11-21T05:52:42;9.40;99.90
51982;DHT22;37998;53.416;6.730;2023-11-21T05:55:08;9.30;99.90
51982;DHT22;37998;53.416;6.730;2023-11-21T05:57:35;9.30;99.90
51982;DHT22;37998;53.416;6.730;2023-11-21T06:00:07;9.20;99.90
51982;DHT22;37998;53.416;6.730;2023-11-21T06:02:49;9.20;99.90
51982;DHT22;37998;53.416;6.730;2023-11-21T06:05:25;9.20;99.90
51982;DHT22;37998;53.416;6.730;2023-11-21T06:07:52;9.20;99.90
51982;DHT22;37998;53.416;6.730;2023-11-21T06:10:20;9.20;99.90
51982;DHT22;37998;53.416;6.730;2023-11-21T06:12:46;9.20;99.90
51982;DHT22;37998;53.416;6.730;2023-11-21T06:15:12;9.20;99.90
51982;DHT22;37998;53.416;6.730;2023-11-21T06:17:44;9.20;99.90
51982;DHT22;37998;53.416;6.730;2023-11-21T06:20:15;9.10;99.90
51982;DHT22;37998;53.416;6.730;2023-11-21T06:22:42;9.10;99.90
51982;DHT22;37998;53.416;6.730;2023-11-21T06:25:09;9.10;99.90
51982;DHT22;37998;53.416;6.730;2023-11-21T06:27:42;9.10;99.90
51982;DHT22;37998;53.416;6.730;2023-11-21T06:30:09;9.10;99.90
51982;DHT22;37998;53.416;6.730;2023-11-21T06:32:36;9.10;99.90
51982;DHT22;37998;53.416;6.730;2023-11-21T06:35:03;9.10;99.90
51982;DHT22;37998;53.416;6.730;2023-11-21T06:37:30;9.10;99.90
51982;DHT22;37998;53.416;6.730;2023-11-21T06:39:56;9.10;99.90
51982;DHT22;37998;53.416;6.730;2023-11-21T06:42:27;9.10;99.90
51982;DHT22;37998;53.416;6.730;2023-11-21T06:44:54;9.10;99.90
51982;DHT22;37998;53.416;6.730;2023-11-21T06:47:23;9.10;99.90
51982;DHT22;37998;53.416;6.730;2023-11-21T06:49:52;9.10;99.90
51982;DHT22;37998;53.416;6.730;2023-11-21T06:52:19;9.10;99.90
51982;DHT22;37998;53.416;6.730;2023-11-21T06:54:47;8.70;99.90
51982;DHT22;37998;53.416;6.730;2023-11-21T06:57:15;9.00;99.90
51982;DHT22;37998;53.416;6.730;2023-11-21T06:59:41;9.00;99.90
51982;DHT22;37998;53.416;6.730;2023-11-21T07:02:07;9.00;99.90
51982;DHT22;37998;53.416;6.730;2023-11-21T07:04:33;8.90;99.90
51982;DHT22;37998;53.416;6.730;2023-11-21T07:07:00;8.90;99.90
51982;DHT22;37998;53.416;6.730;2023-11-21T07:09:26;8.90;99.90
51982;DHT22;37998;53.416;6.730;2023-11-21T07:11:52;8.90;99.90
51982;DHT22;37998;53.416;6.730;2023-11-21T07:14:18;8.90;99.90
51982;DHT22;37998;53.416;6.730;2023-11-21T07:16:45;8.90;99.90
51982;DHT22;37998;53.416;6.730;2023-11-21T07:19:12;8.90;99.90
51982;DHT22;37998;53.416;6.730;2023-11-21T07:21:38;8.90;99.90
51982;DHT22;37998;53.416;6.730;2023-11-21T07:24:06;8.90;99.90
51982;DHT22;37998;53.416;6.730;2023-11-21T07:26:33;8.90;99.90
51982;DHT22;37998;53.416;6.730;2023-11-21T07:29:00;8.90;99.90
51982;DHT22;37998;53.416;6.730;2023-11-21T07:31:26;8.80;99.90
51982;DHT22;37998;53.416;6.730;2023-11-21T07:33:52;8.90;99.90
51982;DHT22;37998;53.416;6.730;2023-11-21T07:36:19;8.90;99.90
51982;DHT22;37998;53.416;6.730;2023-11-21T07:38:46;8.90;99.90
51982;DHT22;37998;53.416;6.730;2023-11-21T07:41:13;8.90;99.90
51982;DHT22;37998;53.416;6.730;2023-11-21T07:43:45;8.90;99.90
51982;DHT22;37998;53.416;6.730;2023-11-21T07:46:11;8.90;99.90
51982;DHT22;37998;53.416;6.730;2023-11-21T07:48:41;8.90;99.90
51982;DHT22;37998;53.416;6.730;2023-11-21T07:51:08;8.90;99.90
51982;DHT22;37998;53.416;6.730;2023-11-21T07:53:35;8.90;99.90
51982;DHT22;37998;53.416;6.730;2023-11-21T07:56:08;8.90;99.90
51982;DHT22;37998;53.416;6.730;2023-11-21T07:58:35;8.80;99.90
51982;DHT22;37998;53.416;6.730;2023-11-21T08:01:02;8.90;99.90
51982;DHT22;37998;53.416;6.730;2023-11-21T08:03:29;8.90;99.90
51982;DHT22;37998;53.416;6.730;2023-11-21T08:05:59;8.90;99.90
51982;DHT22;37998;53.416;6.730;2023-11-21T08:08:25;9.00;99.90
51982;DHT22;37998;53.416;6.730;2023-11-21T08:10:52;9.00;99.90
51982;DHT22;37998;53.416;6.730;2023-11-21T08:13:24;9.00;99.90
51982;DHT22;37998;53.416;6.730;2023-11-21T08:15:53;9.00;99.90
51982;DHT22;37998;53.416;6.730;2023-11-21T08:18:19;9.00;99.90
51982;DHT22;37998;53.416;6.730;2023-11-21T08:20:45;8.90;99.90
51982;DHT22;37998;53.416;6.730;2023-11-21T08:23:14;8.90;99.90
51982;DHT22;37998;53.416;6.730;2023-11-21T08:25:42;8.90;99.90
51982;DHT22;37998;53.416;6.730;2023-11-21T08:28:08;9.10;99.90
51982;DHT22;37998;53.416;6.730;2023-11-21T08:30:34;8.90;99.90
51982;DHT22;37998;53.416;6.730;2023-11-21T08:33:00;8.90;99.90
51982;DHT22;37998;53.416;6.730;2023-11-21T08:35:27;8.80;99.90
51982;DHT22;37998;53.416;6.730;2023-11-21T08:37:53;8.80;99.90
51982;DHT22;37998;53.416;6.730;2023-11-21T08:40:20;8.80;99.90
51982;DHT22;37998;53.416;6.730;2023-11-21T08:42:47;8.80;99.90
51982;DHT22;37998;53.416;6.730;2023-11-21T08:45:17;8.80;99.90
51982;DHT22;37998;53.416;6.730;2023-11-21T08:47:43;8.80;99.90
51982;DHT22;37998;53.416;6.730;2023-11-21T08:50:10;8.70;99.90
51982;DHT22;37998;53.416;6.730;2023-11-21T08:52:42;8.70;99.90
51982;DHT22;37998;53.416;6.730;2023-11-21T08:55:09;8.60;99.90
51982;DHT22;37998;53.416;6.730;2023-11-21T08:57:38;8.60;99.90
51982;DHT22;37998;53.416;6.730;2023-11-21T09:00:07;8.60;99.90
51982;DHT22;37998;53.416;6.730;2023-11-21T09:02:38;8.60;99.90
51982;DHT22;37998;53.416;6.730;2023-11-21T09:05:07;8.60;99.90
51982;DHT22;37998;53.416;6.730;2023-11-21T09:07:35;8.60;99.90
51982;DHT22;37998;53.416;6.730;2023-11-21T09:10:02;8.60;99.90
51982;DHT22;37998;53.416;6.730;2023-11-21T09:12:28;8.60;99.90
51982;DHT22;37998;53.416;6.730;2023-11-21T09:14:54;8.60;99.90
51982;DHT22;37998;53.416;6.730;2023-11-21T09:17:20;8.50;99.90
51982;DHT22;37998;53.416;6.730;2023-11-21T09:19:46;8.50;99.90
51982;DHT22;37998;53.416;6.730;2023-11-21T09:22:16;8.50;99.90
51982;DHT22;37998;53.416;6.730;2023-11-21T09:24:42;8.50;99.90
51982;DHT22;37998;53.416;6.730;2023-11-21T09:27:08;8.60;99.90
51982;DHT22;37998;53.416;6.730;2023-11-21T09:29:35;8.50;99.90
51982;DHT22;37998;53.416;6.730;2023-11-21T09:32:05;8.50;99.90
51982;DHT22;37998;53.416;6.730;2023-11-21T09:34:34;8.50;99.90
51982;DHT22;37998;53.416;6.730;2023-11-21T09:37:04;8.60;99.90
51982;DHT22;37998;53.416;6.730;2023-11-21T09:39:35;8.60;99.90
51982;DHT22;37998;53.416;6.730;2023-11-21T09:42:10;8.60;99.90
51982;DHT22;37998;53.416;6.730;2023-11-21T09:44:44;8.80;99.90
51982;DHT22;37998;53.416;6.730;2023-11-21T09:47:15;8.70;99.90
51982;DHT22;37998;53.416;6.730;2023-11-21T09:49:47;8.80;99.90
51982;DHT22;37998;53.416;6.730;2023-11-21T09:52:28;8.80;99.90
51982;DHT22;37998;53.416;6.730;2023-11-21T09:54:55;8.80;99.90
51982;DHT22;37998;53.416;6.730;2023-11-21T09:57:24;8.80;99.90
51982;DHT22;37998;53.416;6.730;2023-11-21T09:59:54;8.80;99.90
51982;DHT22;37998;53.416;6.730;2023-11-21T10:02:27;8.80;99.90
51982;DHT22;37998;53.416;6.730;2023-11-21T10:04:59;8.80;99.90
51982;DHT22;37998;53.416;6.730;2023-11-21T10:07:27;8.90;99.90
51982;DHT22;37998;53.416;6.730;2023-11-21T10:09:54;8.90;99.90
51982;DHT22;37998;53.416;6.730;2023-11-21T10:12:22;8.80;99.90
51982;DHT22;37998;53.416;6.730;2023-11-21T10:14:50;8.80;99.90
51982;DHT22;37998;53.416;6.730;2023-11-21T10:17:19;8.90;99.90
51982;DHT22;37998;53.416;6.730;2023-11-21T10:19:50;8.80;99.90
51982;DHT22;37998;53.416;6.730;2023-11-21T10:22:17;8.80;99.90
51982;DHT22;37998;53.416;6.730;2023-11-21T10:24:43;8.80;99.90
51982;DHT22;37998;53.416;6.730;2023-11-21T10:27:09;8.80;99.90
51982;DHT22;37998;53.416;6.730;2023-11-21T10:29:35;8.80;99.90
51982;DHT22;37998;53.416;6.730;2023-11-21T10:32:04;8.80;99.90
51982;DHT22;37998;53.416;6.730;2023-11-21T10:34:31;9.00;99.90
51982;DHT22;37998;53.416;6.730;2023-11-21T10:36:57;9.00;99.90
51982;DHT22;37998;53.416;6.730;2023-11-21T10:39:24;9.00;99.90
51982;DHT22;37998;53.416;6.730;2023-11-21T10:41:55;9.00;99.90
51982;DHT22;37998;53.416;6.730;2023-11-21T10:44:21;9.10;99.90
51982;DHT22;37998;53.416;6.730;2023-11-21T10:46:55;9.10;99.90
51982;DHT22;37998;53.416;6.730;2023-11-21T10:49:27;9.00;99.90
51982;DHT22;37998;53.416;6.730;2023-11-21T10:51:53;9.00;99.90
51982;DHT22;37998;53.416;6.730;2023-11-21T10:54:22;9.10;99.90
51982;DHT22;37998;53.416;6.730;2023-11-21T10:56:50;9.00;99.90
51982;DHT22;37998;53.416;6.730;2023-11-21T10:59:17;9.10;99.90
51982;DHT22;37998;53.416;6.730;2023-11-21T11:01:46;9.10;99.90
51982;DHT22;37998;53.416;6.730;2023-11-21T11:04:18;9.20;99.90
51982;DHT22;37998;53.416;6.730;2023-11-21T11:06:46;9.20;99.90
51982;DHT22;37998;53.416;6.730;2023-11-21T11:09:17;9.20;99.90
51982;DHT22;37998;53.416;6.730;2023-11-21T11:11:43;9.10;99.90
51982;DHT22;37998;53.416;6.730;2023-11-21T11:14:13;9.10;99.90
51982;DHT22;37998;53.416;6.730;2023-11-21T11:16:40;9.10;99.90
51982;DHT22;37998;53.416;6.730;2023-11-21T11:19:11;9.00;99.90
51982;DHT22;37998;53.416;6.730;2023-11-21T11:24:21;9.00;99.90
51982;DHT22;37998;53.416;6.730;2023-11-21T11:27:03;9.10;99.90
51982;DHT22;37998;53.416;6.730;2023-11-21T11:32:24;9.20;99.90
51982;DHT22;37998;53.416;6.730;2023-11-21T11:35:20;9.20;99.90
51982;DHT22;37998;53.416;6.730;2023-11-21T11:37:48;9.20;99.90
51982;DHT22;37998;53.416;6.730;2023-11-21T11:40:14;9.20;99.90
51982;DHT22;37998;53.416;6.730;2023-11-21T11:42:58;9.20;99.90
51982;DHT22;37998;53.416;6.730;2023-11-21T11:45:33;9.20;99.90
51982;DHT22;37998;53.416;6.730;2023-11-21T11:48:03;9.30;99.90
51982;DHT22;37998;53.416;6.730;2023-11-21T11:50:29;9.40;99.90
51982;DHT22;37998;53.416;6.730;2023-11-21T11:52:58;9.40;99.90
51982;DHT22;37998;53.416;6.730;2023-11-21T11:55:37;9.50;99.90
51982;DHT22;37998;53.416;6.730;2023-11-21T11:58:06;9.50;99.90
51982;DHT22;37998;53.416;6.730;2023-11-21T12:03:00;9.50;99.90
51982;DHT22;37998;53.416;6.730;2023-11-21T12:05:30;9.50;99.90
51982;DHT22;37998;53.416;6.730;2023-11-21T12:08:16;9.40;99.90
51982;DHT22;37998;53.416;6.730;2023-11-21T12:10:42;9.30;99.90
51982;DHT22;37998;53.416;6.730;2023-11-21T12:13:10;9.30;99.90
51982;DHT22;37998;53.416;6.730;2023-11-21T12:15:38;9.20;99.90
51982;DHT22;37998;53.416;6.730;2023-11-21T12:18:04;9.30;99.90
51982;DHT22;37998;53.416;6.730;2023-11-21T12:20:31;9.10;99.90
51982;DHT22;37998;53.416;6.730;2023-11-21T12:22:59;9.10;99.90
51982;DHT22;37998;53.416;6.730;2023-11-21T12:25:27;9.10;99.90
51982;DHT22;37998;53.416;6.730;2023-11-21T12:28:00;9.10;99.90
51982;DHT22;37998;53.416;6.730;2023-11-21T12:30:28;9.10;99.90
51982;DHT22;37998;53.416;6.730;2023-11-21T12:32:57;9.10;99.90
51982;DHT22;37998;53.416;6.730;2023-11-21T12:35:34;9.20;99.90
51982;DHT22;37998;53.416;6.730;2023-11-21T12:38:02;9.20;99.90
51982;DHT22;37998;53.416;6.730;2023-11-21T12:40:28;9.20;99.90
51982;DHT22;37998;53.416;6.730;2023-11-21T12:42:56;9.10;99.90
51982;DHT22;37998;53.416;6.730;2023-11-21T12:45:24;9.10;99.90
51982;DHT22;37998;53.416;6.730;2023-11-21T12:48:00;9.10;99.90
51982;DHT22;37998;53.416;6.730;2023-11-21T12:50:30;9.10;99.90
51982;DHT22;37998;53.416;6.730;2023-11-21T12:53:08;9.00;99.90
51982;DHT22;37998;53.416;6.730;2023-11-21T12:55:43;9.00;99.90
51982;DHT22;37998;53.416;6.730;2023-11-21T12:58:15;9.00;99.90
51982;DHT22;37998;53.416;6.730;2023-11-21T13:00:46;9.00;99.90
51982;DHT22;37998;53.416;6.730;2023-11-21T13:03:14;9.00;99.90
51982;DHT22;37998;53.416;6.730;2023-11-21T13:05:49;9.00;99.90
51982;DHT22;37998;53.416;6.730;2023-11-21T13:08:22;9.00;99.90
51982;DHT22;37998;53.416;6.730;2023-11-21T13:10:51;9.00;99.90
51982;DHT22;37998;53.416;6.730;2023-11-21T13:13:17;9.00;99.90
51982;DHT22;37998;53.416;6.730;2023-11-21T13:15:54;8.90;99.90
51982;DHT22;37998;53.416;6.730;2023-11-21T13:18:27;9.00;99.90
51982;DHT22;37998;53.416;6.730;2023-11-21T13:20:58;9.00;99.90
51982;DHT22;37998;53.416;6.730;2023-11-21T13:23:25;9.00;99.90
51982;DHT22;37998;53.416;6.730;2023-11-21T13:25:52;9.00;99.90
51982;DHT22;37998;53.416;6.730;2023-11-21T13:28:18;9.00;99.90
51982;DHT22;37998;53.416;6.730;2023-11-21T13:30:47;9.00;99.90
51982;DHT22;37998;53.416;6.730;2023-11-21T13:33:14;8.90;99.90
51982;DHT22;37998;53.416;6.730;2023-11-21T13:35:47;9.00;99.90
51982;DHT22;37998;53.416;6.730;2023-11-21T13:38:18;9.00;99.90
51982;DHT22;37998;53.416;6.730;2023-11-21T13:40:52;9.00;99.90
51982;DHT22;37998;53.416;6.730;2023-11-21T13:43:23;9.00;99.90
51982;DHT22;37998;53.416;6.730;2023-11-21T13:45:52;9.00;99.90
51982;DHT22;37998;53.416;6.730;2023-11-21T13:48:28;8.90;99.90
51982;DHT22;37998;53.416;6.730;2023-11-21T13:51:03;8.90;99.90
51982;DHT22;37998;53.416;6.730;2023-11-21T13:53:45;8.90;99.90
51982;DHT22;37998;53.416;6.730;2023-11-21T13:56:13;8.80;99.90
51982;DHT22;37998;53.416;6.730;2023-11-21T13:58:44;8.80;99.90
51982;DHT22;37998;53.416;6.730;2023-11-21T14:01:18;8.90;99.90
51982;DHT22;37998;53.416;6.730;2023-11-21T14:04:04;8.90;99.90
51982;DHT22;37998;53.416;6.730;2023-11-21T14:06:49;8.90;99.90
51982;DHT22;37998;53.416;6.730;2023-11-21T14:09:18;8.80;99.90
51982;DHT22;37998;53.416;6.730;2023-11-21T14:12:01;8.80;99.90
51982;DHT22;37998;53.416;6.730;2023-11-21T14:14:32;8.80;99.90
51982;DHT22;37998;53.416;6.730;2023-11-21T14:16:57;8.80;99.90
51982;DHT22;37998;53.416;6.730;2023-11-21T14:19:24;8.80;99.90
51982;DHT22;37998;53.416;6.730;2023-11-21T14:21:57;8.70;99.90
51982;DHT22;37998;53.416;6.730;2023-11-21T14:24:22;8.70;99.90
51982;DHT22;37998;53.416;6.730;2023-11-21T14:26:50;8.80;99.90
51982;DHT22;37998;53.416;6.730;2023-11-21T14:29:18;8.70;99.90
51982;DHT22;37998;53.416;6.730;2023-11-21T14:31:46;8.80;99.90
51982;DHT22;37998;53.416;6.730;2023-11-21T14:34:12;8.70;99.90
51982;DHT22;37998;53.416;6.730;2023-11-21T14:36:39;8.70;99.90
51982;DHT22;37998;53.416;6.730;2023-11-21T14:39:06;8.70;99.90
51982;DHT22;37998;53.416;6.730;2023-11-21T14:41:35;8.70;99.90
51982;DHT22;37998;53.416;6.730;2023-11-21T14:44:01;8.60;99.90
51982;DHT22;37998;53.416;6.730;2023-11-21T14:46:30;8.70;99.90
51982;DHT22;37998;53.416;6.730;2023-11-21T14:48:56;8.70;99.90
51982;DHT22;37998;53.416;6.730;2023-11-21T14:51:28;8.70;99.90
51982;DHT22;37998;53.416;6.730;2023-11-21T14:53:58;8.70;99.90
51982;DHT22;37998;53.416;6.730;2023-11-21T14:56:34;8.70;99.90
51982;DHT22;37998;53.416;6.730;2023-11-21T14:59:02;8.70;99.90
51982;DHT22;37998;53.416;6.730;2023-11-21T15:01:34;8.70;99.90
51982;DHT22;37998;53.416;6.730;2023-11-21T15:04:19;8.70;99.90
51982;DHT22;37998;53.416;6.730;2023-11-21T15:07:02;8.60;99.90
51982;DHT22;37998;53.416;6.730;2023-11-21T15:09:29;8.60;99.90
51982;DHT22;37998;53.416;6.730;2023-11-21T15:11:58;8.60;99.90
51982;DHT22;37998;53.416;6.730;2023-11-21T15:14:35;8.60;99.90
51982;DHT22;37998;53.416;6.730;2023-11-21T15:17:02;8.50;99.90
51982;DHT22;37998;53.416;6.730;2023-11-21T15:19:29;8.50;99.90
51982;DHT22;37998;53.416;6.730;2023-11-21T15:21:57;8.50;99.90
51982;DHT22;37998;53.416;6.730;2023-11-21T15:24:24;8.50;99.90
51982;DHT22;37998;53.416;6.730;2023-11-21T15:26:50;8.50;99.90
51982;DHT22;37998;53.416;6.730;2023-11-21T15:29:16;8.40;99.90
51982;DHT22;37998;53.416;6.730;2023-11-21T15:31:43;8.40;99.90
51982;DHT22;37998;53.416;6.730;2023-11-21T15:34:15;8.40;99.90
51982;DHT22;37998;53.416;6.730;2023-11-21T15:36:40;8.30;99.90
51982;DHT22;37998;53.416;6.730;2023-11-21T15:39:06;8.20;99.90
51982;DHT22;37998;53.416;6.730;2023-11-21T15:41:38;8.20;99.90
51982;DHT22;37998;53.416;6.730;2023-11-21T15:44:05;8.20;99.90
51982;DHT22;37998;53.416;6.730;2023-11-21T15:46:34;8.10;99.90
51982;DHT22;37998;53.416;6.730;2023-11-21T15:49:01;8.10;99.90
51982;DHT22;37998;53.416;6.730;2023-11-21T15:51:29;8.10;99.90
51982;DHT22;37998;53.416;6.730;2023-11-21T15:53:55;8.20;99.90
51982;DHT22;37998;53.416;6.730;2023-11-21T15:56:21;8.20;99.90
51982;DHT22;37998;53.416;6.730;2023-11-21T15:58:48;8.20;99.90